Time;durP1;ratioP1;P1;durP2;ratioP2;P2;SDS_P1;SDS_P2;PMS_P1;PMS_P2;Temp;Humidity;BMP_temperature;BMP_pressure;BME280_temperature;BME280_humidity;BME280_pressure;Samples;Min_cycle;Max_cycle;Signal;HPM_P1;HPM_P2
2021/12/23 00:00:11;;;;;;;17.97;6.90;;;;;;;-145.69;100.00;73990.06;5052327;28;20280;-77
2021/12/23 00:02:39;;;;;;;21.87;6.47;;;;;;;-145.69;100.00;73992.03;5052689;28;20199;-77
2021/12/23 00:05:06;;;;;;;14.50;4.93;;;;;;;-145.69;100.00;73996.03;5052832;28;20230;-77
2021/12/23 00:07:33;;;;;;;9.87;4.37;;;;;;;-145.69;100.00;74019.91;5052849;28;20199;-76
2021/12/23 00:10:05;;;;;;;12.00;4.77;;;;;;;-145.69;100.00;73988.06;5052836;28;20195;-77
2021/12/23 00:12:36;;;;;;;14.67;4.30;;;;;;;-145.69;100.00;73970.16;5052637;28;20582;-77
2021/12/23 00:15:04;;;;;;;15.37;5.23;;;;;;;-145.69;100.00;73944.25;5052677;28;20195;-77
2021/12/23 00:17:54;;;;;;;11.30;5.07;;;;;;;-145.69;100.00;73934.31;5052889;28;20199;-77
2021/12/23 00:23:27;;;;;;;15.43;5.37;;;;;;;-145.69;100.00;73916.38;5052451;28;20207;-77
2021/12/23 00:25:58;;;;;;;17.10;5.40;;;;;;;-145.69;100.00;73904.44;5052421;28;20231;-77
2021/12/23 00:28:25;;;;;;;11.87;4.27;;;;;;;-145.69;100.00;73900.44;5052698;28;20195;-77
2021/12/23 00:30:52;;;;;;;13.83;5.30;;;;;;;-145.69;100.00;73918.38;5052593;28;20199;-77
2021/12/23 00:33:18;;;;;;;11.40;4.57;;;;;;;-145.69;100.00;73906.44;5052478;28;20199;-77
2021/12/23 00:35:46;;;;;;;11.50;4.77;;;;;;;-145.69;100.00;73920.38;5052484;28;20261;-76
2021/12/23 00:38:19;;;;;;;10.13;4.47;;;;;;;-145.69;100.00;73918.38;5052394;28;20207;-78
2021/12/23 00:40:46;;;;;;;9.20;3.87;;;;;;;-145.69;100.00;73922.34;5052287;28;20203;-77
2021/12/23 00:43:12;;;;;;;9.70;3.23;;;;;;;-145.69;100.00;73906.44;5052505;28;20221;-77
2021/12/23 00:45:39;;;;;;;12.50;3.83;;;;;;;-145.69;100.00;73858.63;5052369;28;20291;-77
2021/12/23 00:48:06;;;;;;;12.17;4.77;;;;;;;-145.69;100.00;73830.75;5052421;28;20199;-77
2021/12/23 00:50:32;;;;;;;9.50;4.13;;;;;;;-145.69;100.00;73822.81;5051919;28;20211;-77
2021/12/23 00:53:05;;;;;;;12.93;4.50;;;;;;;-145.69;100.00;73832.75;5052532;28;20206;-77
2021/12/23 00:55:31;;;;;;;8.93;4.00;;;;;;;-145.69;100.00;73826.78;5052425;28;20230;-77
2021/12/23 00:57:59;;;;;;;13.40;4.47;;;;;;;-145.69;100.00;73820.81;5054276;28;20253;-77
2021/12/23 01:00:26;;;;;;;9.53;4.13;;;;;;;-145.69;100.00;73848.69;5055952;28;20207;-77
2021/12/23 01:02:53;;;;;;;9.60;3.77;;;;;;;-145.69;100.00;73822.81;5056051;28;20210;-78
2021/12/23 01:05:22;;;;;;;8.90;3.83;;;;;;;-145.69;100.00;73782.97;5055611;28;20647;-77
2021/12/23 01:07:50;;;;;;;10.60;4.00;;;;;;;-145.69;100.00;73763.06;5055929;28;20211;-77
2021/12/23 01:10:18;;;;;;;9.93;4.07;;;;;;;-145.69;100.00;73771.03;5055652;28;20680;-78
2021/12/23 01:12:48;;;;;;;9.47;4.10;;;;;;;-145.69;100.00;73767.06;5055574;28;20309;-77
2021/12/23 01:15:37;;;;;;;10.53;3.70;;;;;;;-145.69;100.00;73786.97;5055652;28;20210;-77
2021/12/23 01:18:09;;;;;;;9.77;4.23;;;;;;;-145.69;100.00;73779.00;5055503;28;20200;-77
2021/12/23 01:20:37;;;;;;;8.73;3.70;;;;;;;-145.69;100.00;73786.97;5055010;28;20203;-77
2021/12/23 01:23:07;;;;;;;6.60;3.37;;;;;;;-145.69;100.00;73782.97;5055462;28;20558;-77
2021/12/23 01:25:38;;;;;;;9.30;3.80;;;;;;;-145.69;100.00;73800.91;5055362;28;20751;-77
2021/12/23 01:28:07;;;;;;;9.93;3.60;;;;;;;-145.69;100.00;73798.91;5055357;28;20218;-77
2021/12/23 01:30:37;;;;;;;9.83;3.40;;;;;;;-145.69;100.00;73798.91;5055363;28;20200;-78
2021/12/23 01:33:04;;;;;;;8.53;3.03;;;;;;;-145.69;100.00;73782.97;5055597;28;20196;-77
2021/12/23 01:35:32;;;;;;;8.40;3.63;;;;;;;-145.69;100.00;73765.06;5054914;28;20662;-77
2021/12/23 01:38:01;;;;;;;8.67;2.80;;;;;;;-145.69;100.00;73743.16;5055139;28;20195;-77
2021/12/23 01:40:28;;;;;;;7.83;2.83;;;;;;;-145.69;100.00;73737.19;5055021;28;20222;-77
2021/12/23 01:42:57;;;;;;;7.67;3.03;;;;;;;-145.69;100.00;73743.16;5055017;28;20685;-77
2021/12/23 01:45:26;;;;;;;8.03;3.17;;;;;;;-145.69;100.00;73717.28;5055081;28;20204;-77
2021/12/23 01:47:53;;;;;;;5.53;2.73;;;;;;;-145.69;100.00;73695.38;5054978;28;20230;-77
2021/12/23 01:50:26;;;;;;;5.53;2.67;;;;;;;-145.69;100.00;73695.38;5053053;28;20261;-77
2021/12/23 01:52:53;;;;;;;8.17;3.07;;;;;;;-145.69;100.00;73683.44;5054950;28;20221;-77
2021/12/23 01:55:20;;;;;;;6.97;3.13;;;;;;;-145.69;100.00;73673.47;5054847;28;20544;-77
2021/12/23 01:57:46;;;;;;;7.47;3.47;;;;;;;-145.69;100.00;73663.53;5054978;28;20199;-77
2021/12/23 02:00:17;;;;;;;8.03;3.43;;;;;;;-145.69;100.00;73659.53;5054851;28;20195;-78
2021/12/23 02:02:44;;;;;;;9.97;3.50;;;;;;;-145.69;100.00;73657.53;5054931;28;20195;-77
2021/12/23 02:05:11;;;;;;;9.73;4.00;;;;;;;-145.69;100.00;73661.53;5054645;28;20200;-77
2021/12/23 02:07:38;;;;;;;11.27;4.10;;;;;;;-145.69;100.00;73659.53;5054469;28;20698;-77
2021/12/23 02:10:07;;;;;;;11.33;4.33;;;;;;;-145.69;100.00;73655.56;5053582;28;20208;-78
2021/12/23 02:12:35;;;;;;;14.97;5.07;;;;;;;-145.69;100.00;73657.53;5054580;28;20302;-78
2021/12/23 02:15:01;;;;;;;11.03;4.47;;;;;;;-145.69;100.00;73659.53;5054640;28;20258;-77
2021/12/23 02:17:29;;;;;;;13.97;5.10;;;;;;;-145.69;100.00;73665.50;5054479;28;20657;-77
2021/12/23 02:19:57;;;;;;;10.77;4.27;;;;;;;-145.69;100.00;73671.47;5054151;28;20245;-77
2021/12/23 02:22:23;;;;;;;11.30;4.63;;;;;;;-145.69;100.00;73677.47;5054290;28;20674;-77
2021/12/23 02:24:50;;;;;;;11.30;4.60;;;;;;;-145.69;100.00;73669.50;5054789;28;20264;-77
2021/12/23 02:27:16;;;;;;;11.03;4.60;;;;;;;-145.69;100.00;73669.50;5054424;28;20227;-78
2021/12/23 02:29:43;;;;;;;9.80;3.75;;;;;;;-145.69;100.00;73659.53;5054339;28;20482;-77
2021/12/23 02:32:09;;;;;;;14.73;4.77;;;;;;;-145.69;100.00;73647.59;5054452;28;20253;-78
2021/12/23 02:34:36;;;;;;;8.67;3.90;;;;;;;-145.69;100.00;73639.63;5053849;28;20658;-78
2021/12/23 02:37:04;;;;;;;8.50;3.57;;;;;;;-145.69;100.00;73639.63;5054086;28;20277;-77
2021/12/23 02:39:31;;;;;;;12.40;4.43;;;;;;;-145.69;100.00;73643.59;5053926;28;20211;-78
2021/12/23 02:42:00;;;;;;;9.13;3.80;;;;;;;-145.69;100.00;73635.66;5054191;28;20199;-78
2021/12/23 02:44:27;;;;;;;8.43;3.83;;;;;;;-145.69;100.00;73645.59;5054028;28;20558;-77
2021/12/23 02:46:54;;;;;;;9.17;3.73;;;;;;;-145.69;100.00;73651.56;5053889;28;20602;-78
2021/12/23 02:49:21;;;;;;;11.83;3.97;;;;;;;-145.69;100.00;73657.53;5053429;28;20317;-78
2021/12/23 02:51:47;;;;;;;10.27;3.93;;;;;;;-145.69;100.00;73669.50;5054028;28;20202;-78
2021/12/23 02:54:15;;;;;;;12.03;3.90;;;;;;;-145.69;100.00;73667.50;5053942;28;20200;-78
2021/12/23 02:56:41;;;;;;;10.60;4.20;;;;;;;-145.69;100.00;73655.56;5053622;28;20199;-79
2021/12/23 02:59:08;;;;;;;8.67;3.43;;;;;;;-145.69;100.00;73641.63;5053551;28;20203;-78
2021/12/23 03:01:34;;;;;;;9.70;3.70;;;;;;;-145.69;100.00;73635.66;5053697;28;20207;-78
2021/12/23 03:04:01;;;;;;;8.70;3.70;;;;;;;-145.69;100.00;73619.72;5053697;28;20211;-78
2021/12/23 03:06:28;;;;;;;8.30;3.70;;;;;;;-145.69;100.00;73613.75;5053862;28;20219;-78
2021/12/23 03:08:59;;;;;;;9.60;3.90;;;;;;;-145.69;100.00;73601.81;5053643;28;20745;-78
2021/12/23 03:11:29;;;;;;;9.07;4.57;;;;;;;-145.69;100.00;73591.84;5053393;28;20654;-77
2021/12/23 03:13:56;;;;;;;13.73;5.00;;;;;;;-145.69;100.00;73589.84;5053212;28;20235;-78
2021/12/23 03:16:26;;;;;;;14.17;5.20;;;;;;;-145.69;100.00;73587.88;5052704;28;20199;-77
2021/12/23 03:18:52;;;;;;;11.93;4.93;;;;;;;-145.69;100.00;73597.81;5053552;28;20202;-78
2021/12/23 03:21:19;;;;;;;18.60;4.80;;;;;;;-145.69;100.00;73587.88;5052889;28;20714;-78
2021/12/23 03:23:46;;;;;;;13.00;4.50;;;;;;;-145.69;100.00;73585.88;5053027;28;20659;-77
2021/12/23 03:26:12;;;;;;;12.00;4.60;;;;;;;-145.69;100.00;73595.81;5053144;28;20196;-77
2021/12/23 03:28:40;;;;;;;9.57;4.17;;;;;;;-145.69;100.00;73601.81;5053185;28;20559;-77
2021/12/23 03:31:10;;;;;;;9.40;4.40;;;;;;;-145.69;100.00;73597.81;5052881;28;20214;-76
2021/12/23 03:33:39;;;;;;;12.77;4.40;;;;;;;-145.69;100.00;73603.78;5053210;28;20211;-77
2021/12/23 03:36:06;;;;;;;10.50;3.97;;;;;;;-145.69;100.00;73593.84;5053140;28;20203;-78
2021/12/23 03:38:34;;;;;;;12.67;4.07;;;;;;;-145.69;100.00;73575.91;5053032;28;20654;-78
2021/12/23 03:41:01;;;;;;;14.07;4.40;;;;;;;-145.69;100.00;73563.97;5053104;28;20225;-77
2021/12/23 03:43:28;;;;;;;7.87;3.67;;;;;;;-145.69;100.00;73558.00;5052885;28;20724;-78
2021/12/23 03:45:57;;;;;;;8.77;3.33;;;;;;;-145.69;100.00;73552.03;5052688;28;20191;-78
2021/12/23 03:48:24;;;;;;;8.70;3.20;;;;;;;-145.69;100.00;73520.16;5052209;28;20230;-78
2021/12/23 03:50:50;;;;;;;9.30;4.13;;;;;;;-145.69;100.00;73514.19;5052960;28;20199;-77
2021/12/23 03:53:18;;;;;;;11.23;4.23;;;;;;;-145.69;100.00;73516.19;5052956;28;20248;-77
2021/12/23 03:55:45;;;;;;;9.73;3.90;;;;;;;-145.69;100.00;73512.22;5052834;28;20207;-77
2021/12/23 03:58:11;;;;;;;9.67;4.03;;;;;;;-145.69;100.00;73502.25;5052674;28;20670;-77
2021/12/23 04:00:38;;;;;;;10.47;4.13;;;;;;;-145.69;100.00;73500.25;5052619;28;20206;-76
2021/12/23 04:03:06;;;;;;;7.70;3.53;;;;;;;-145.69;100.00;73500.25;5053042;28;20195;-76
2021/12/23 04:05:32;;;;;;;13.37;4.00;;;;;;;-145.69;100.00;73500.25;5052959;28;20262;-77
2021/12/23 04:07:59;;;;;;;11.43;4.53;;;;;;;-145.69;100.00;73480.34;5052878;28;20563;-77
2021/12/23 04:10:25;;;;;;;11.67;4.23;;;;;;;-145.69;100.00;73468.41;5052585;28;20203;-77
2021/12/23 04:12:52;;;;;;;14.97;3.53;;;;;;;-145.69;100.00;73446.50;5052407;28;20239;-77
2021/12/23 04:15:20;;;;;;;8.50;3.47;;;;;;;-145.69;100.00;73432.56;5052635;28;20257;-78
2021/12/23 04:17:47;;;;;;;7.97;3.80;;;;;;;-145.69;100.00;73440.53;5052749;28;20658;-78
2021/12/23 04:20:18;;;;;;;11.17;4.40;;;;;;;-145.69;100.00;73444.50;5052605;28;20214;-78
2021/12/23 04:22:45;;;;;;;11.63;4.30;;;;;;;-145.69;100.00;73444.50;5052792;28;20206;-78
2021/12/23 04:25:13;;;;;;;9.43;4.70;;;;;;;-145.69;100.00;73440.53;5052479;28;20255;-78
2021/12/23 04:27:40;;;;;;;8.97;3.77;;;;;;;-145.69;100.00;73424.59;5052712;28;20309;-77
2021/12/23 04:30:10;;;;;;;8.50;4.00;;;;;;;-145.69;100.00;73410.66;5052599;28;20261;-78
2021/12/23 04:32:37;;;;;;;10.13;3.50;;;;;;;-145.69;100.00;73424.59;5053908;28;20562;-78
2021/12/23 04:35:04;;;;;;;11.13;4.93;;;;;;;-145.69;100.00;73434.56;5056382;28;20207;-77
2021/12/23 04:37:32;;;;;;;10.75;4.93;;;;;;;-145.69;99.74;73396.72;5055628;28;20440;-78
2021/12/23 04:39:58;;;;;;;8.13;3.70;;;;;;;-145.69;99.98;73384.78;5056279;28;20200;-77
2021/12/23 04:42:25;;;;;;;6.43;2.87;;;;;;;-145.69;99.66;73356.91;5056442;28;20195;-77
2021/12/23 04:44:52;;;;;;;10.17;3.40;;;;;;;-145.69;100.00;73346.97;5056213;28;20670;-77
2021/12/23 04:47:18;;;;;;;8.40;3.77;;;;;;;-145.69;100.00;73376.81;5056181;28;20223;-77
2021/12/23 04:49:45;;;;;;;6.77;3.10;;;;;;;-145.69;100.00;73388.78;5056159;28;20206;-77
2021/12/23 04:52:11;;;;;;;11.60;3.40;;;;;;;-145.69;100.00;73388.78;5056013;28;20230;-77
2021/12/23 04:54:39;;;;;;;7.07;3.40;;;;;;;-145.69;99.27;73354.94;5056276;28;20200;-77
2021/12/23 04:57:07;;;;;;;7.77;3.20;;;;;;;-145.69;100.00;73341.00;5056133;28;20199;-77
2021/12/23 04:59:33;;;;;;;9.57;3.67;;;;;;;-145.69;100.00;73348.97;5056042;28;20290;-77
2021/12/23 05:02:00;;;;;;;11.57;3.33;;;;;;;-145.69;98.64;73333.03;5055954;28;20207;-77
2021/12/23 05:04:26;;;;;;;6.77;3.20;;;;;;;-145.69;98.35;73321.09;5055970;28;20203;-78
2021/12/23 05:06:53;;;;;;;7.60;3.27;;;;;;;-145.69;98.07;73313.13;5055606;28;20199;-77
2021/12/23 05:09:19;;;;;;;9.00;3.53;;;;;;;-145.69;100.00;73333.03;5055672;28;20204;-76
2021/12/23 05:11:47;;;;;;;6.20;3.00;;;;;;;-145.69;100.00;73346.97;5055879;28;20200;-77
2021/12/23 05:14:14;;;;;;;9.63;2.87;;;;;;;-145.69;100.00;73358.91;5055561;28;20285;-76
2021/12/23 05:16:40;;;;;;;7.77;3.37;;;;;;;-145.69;100.00;73348.97;5054973;28;20554;-77
2021/12/23 05:19:06;;;;;;;7.87;3.33;;;;;;;-145.69;100.00;73358.91;5055238;28;20203;-77
2021/12/23 05:21:33;;;;;;;7.17;2.80;;;;;;;-145.69;100.00;73356.91;5055270;28;20211;-77
2021/12/23 05:23:59;;;;;;;8.10;3.20;;;;;;;-145.69;100.00;73352.94;5055583;28;20229;-76
2021/12/23 05:26:26;;;;;;;7.37;2.80;;;;;;;-145.69;100.00;73344.97;5055461;28;20211;-77
2021/12/23 05:28:54;;;;;;;6.73;2.83;;;;;;;-145.69;100.00;73344.97;5055355;28;20701;-77
2021/12/23 05:31:20;;;;;;;7.27;3.07;;;;;;;-145.69;100.00;73342.97;5055133;28;20207;-76
2021/12/23 05:33:47;;;;;;;9.03;3.17;;;;;;;-145.69;100.00;73337.00;5055302;28;20207;-76
2021/12/23 05:36:13;;;;;;;8.13;2.90;;;;;;;-145.69;100.00;73341.00;5054902;28;20199;-77
2021/12/23 05:38:42;;;;;;;6.13;2.60;;;;;;;-145.69;100.00;73325.06;5055472;28;20214;-77
2021/12/23 05:41:09;;;;;;;4.93;2.17;;;;;;;-145.69;97.06;73291.22;5055281;28;20200;-77
2021/12/23 05:43:35;;;;;;;4.00;2.10;;;;;;;-145.69;98.08;73301.19;5055316;28;20237;-77
2021/12/23 05:46:03;;;;;;;3.80;1.80;;;;;;;-145.69;96.94;73257.38;5054794;28;20196;-76
2021/12/23 05:48:30;;;;;;;6.80;2.17;;;;;;;-145.69;97.88;73263.34;5054993;28;20227;-77
2021/12/23 05:50:56;;;;;;;4.13;2.27;;;;;;;-145.69;100.00;73293.22;5054685;28;20551;-77
2021/12/23 05:53:23;;;;;;;5.27;2.57;;;;;;;-145.69;100.00;73352.94;5055031;28;20204;-77
2021/12/23 05:55:49;;;;;;;3.93;2.17;;;;;;;-145.69;100.00;73315.13;5055006;28;20249;-76
2021/12/23 05:58:15;;;;;;;5.23;2.50;;;;;;;-145.69;100.00;73333.03;5054921;28;20199;-76
2021/12/23 06:00:42;;;;;;;3.80;1.77;;;;;;;-145.69;99.60;73289.22;5054884;28;20258;-76
2021/12/23 06:03:10;;;;;;;5.27;2.00;;;;;;;-145.69;99.71;73291.22;5054802;28;20195;-77
2021/12/23 06:05:36;;;;;;;4.27;2.40;;;;;;;-145.69;100.00;73341.00;5054937;28;20199;-76
2021/12/23 06:08:03;;;;;;;5.77;2.07;;;;;;;-145.69;100.00;73317.09;5054924;28;20235;-76
2021/12/23 06:10:29;;;;;;;4.13;2.10;;;;;;;-145.69;100.00;73321.09;5054805;28;20662;-77
2021/12/23 06:12:56;;;;;;;4.20;1.80;;;;;;;-145.69;100.00;73305.16;5054636;28;20235;-77
2021/12/23 06:15:22;;;;;;;3.77;1.70;;;;;;;-145.69;100.00;73289.22;5054358;28;20677;-77
2021/12/23 06:17:49;;;;;;;3.47;1.87;;;;;;;-145.69;100.00;73277.28;5054417;28;20204;-77
2021/12/23 06:20:16;;;;;;;4.23;2.20;;;;;;;-145.69;100.00;73277.28;5054748;28;20598;-77
2021/12/23 06:22:43;;;;;;;4.43;2.10;;;;;;;-145.69;100.00;73281.25;5054496;28;20204;-77
2021/12/23 06:25:11;;;;;;;3.90;2.00;;;;;;;-145.69;100.00;73251.41;5054517;28;20206;-77
2021/12/23 06:27:39;;;;;;;8.53;2.27;;;;;;;-145.69;100.00;73223.53;5054421;28;20590;-77
2021/12/23 06:30:14;;;;;;;4.40;1.60;;;;;;;-145.69;100.00;73215.56;5054595;28;20250;-77
2021/12/23 06:32:41;;;;;;;3.00;1.60;;;;;;;-145.69;100.00;73221.53;5054717;28;20227;-77
2021/12/23 06:35:09;;;;;;;4.47;2.00;;;;;;;-145.69;98.14;73173.75;5053182;28;20822;-77
2021/12/23 06:37:37;;;;;;;4.60;2.40;;;;;;;-145.69;98.71;73163.81;5054258;28;20449;-77
2021/12/23 06:40:05;;;;;;;3.33;1.80;;;;;;;-145.69;94.60;73100.09;5054075;28;20203;-77
2021/12/23 06:42:32;;;;;;;4.20;1.70;;;;;;;-145.69;100.00;73126.00;5054136;28;20206;-77
2021/12/23 06:44:58;;;;;;;2.70;1.60;;;;;;;-145.69;100.00;73129.97;5053619;28;20195;-77
2021/12/23 06:47:25;;;;;;;3.30;1.60;;;;;;;-145.69;100.00;73126.00;5054017;28;20195;-78
2021/12/23 06:49:51;;;;;;;3.43;1.50;;;;;;;-145.69;94.04;73062.28;5054024;28;20196;-77
2021/12/23 06:52:18;;;;;;;4.20;1.73;;;;;;;-145.69;98.56;73082.19;5054075;28;20200;-77
2021/12/23 06:54:48;;;;;;;2.77;1.63;;;;;;;-145.69;92.97;73058.31;5053333;28;20195;-77
2021/12/23 06:57:15;;;;;;;6.37;1.57;;;;;;;-145.69;96.41;73072.25;5053730;28;20200;-77
2021/12/23 06:59:41;;;;;;;3.33;1.70;;;;;;;-145.69;100.00;73084.19;5053948;28;20203;-77
2021/12/23 07:02:08;;;;;;;3.93;1.73;;;;;;;-145.69;98.14;73074.22;5054004;28;20207;-77
2021/12/23 07:04:36;;;;;;;3.53;2.07;;;;;;;-145.69;93.54;73054.31;5053717;28;20210;-77
2021/12/23 07:07:09;;;;;;;2.90;1.80;;;;;;;-145.69;95.12;73054.31;5053614;28;20659;-78
2021/12/23 07:09:36;;;;;;;3.90;1.90;;;;;;;-145.69;98.14;73076.22;5053389;28;20664;-77
2021/12/23 07:12:05;;;;;;;3.30;1.93;;;;;;;-145.69;97.74;73082.19;5053551;28;20207;-78
2021/12/23 07:14:31;;;;;;;3.10;2.00;;;;;;;-145.69;92.64;73036.41;5053410;28;20214;-77
2021/12/23 07:16:58;;;;;;;2.33;1.70;;;;;;;-145.69;93.78;73040.38;5053500;28;20187;-77
2021/12/23 07:19:24;;;;;;;2.17;1.40;;;;;;;-145.69;92.42;73046.34;5053218;28;20199;-77
2021/12/23 07:21:51;;;;;;;3.53;1.80;;;;;;;-145.69;90.59;73020.47;5053397;28;20555;-78
2021/12/23 07:24:17;;;;;;;3.40;1.60;;;;;;;-145.69;90.35;73012.53;5053179;28;20700;-78
2021/12/23 07:26:44;;;;;;;5.37;1.90;;;;;;;-145.69;86.53;72964.75;5053390;28;20206;-77
2021/12/23 07:29:12;;;;;;;4.47;2.03;;;;;;;-145.69;85.61;72911.00;5053233;28;20704;-78
2021/12/23 07:31:38;;;;;;;3.33;1.77;;;;;;;-145.69;87.48;72911.00;5053320;28;20196;-78
2021/12/23 07:34:05;;;;;;;5.00;2.03;;;;;;;-145.69;89.43;72940.84;5052635;28;20431;-77
2021/12/23 07:36:32;;;;;;;2.97;1.90;;;;;;;-145.69;93.17;72962.75;5053164;28;20253;-78
2021/12/23 07:38:58;;;;;;;4.30;2.00;;;;;;;-145.69;85.51;72875.16;5053156;28;20199;-78
2021/12/23 07:41:26;;;;;;;4.23;1.60;;;;;;;-145.69;89.73;72913.00;5053400;28;20244;-77
2021/12/23 07:43:58;;;;;;;5.33;2.00;;;;;;;-145.69;93.07;72932.91;5053183;28;20221;-78
2021/12/23 07:46:28;;;;;;;6.20;2.13;;;;;;;-145.69;92.11;72962.75;5052809;28;20244;-78
2021/12/23 07:48:54;;;;;;;3.70;2.10;;;;;;;-145.69;89.31;72914.97;5053090;28;20236;-78
2021/12/23 07:51:21;;;;;;;3.73;1.70;;;;;;;-145.69;86.85;72895.06;5052972;28;20222;-78
2021/12/23 07:53:47;;;;;;;4.83;2.70;;;;;;;-145.69;88.55;72827.38;5053338;28;20258;-78
2021/12/23 07:56:14;;;;;;;4.67;1.60;;;;;;;-145.69;85.51;72811.47;5053307;28;20302;-78
2021/12/23 07:58:41;;;;;;;4.30;1.97;;;;;;;-145.69;88.08;72803.50;5053213;28;20213;-78
2021/12/23 08:01:08;;;;;;;6.20;1.80;;;;;;;-145.69;81.84;72694.03;5052640;28;20206;-78
2021/12/23 08:03:36;;;;;;;7.33;2.30;;;;;;;-145.69;77.52;72598.47;5052921;28;20207;-78
2021/12/23 08:06:02;;;;;;;4.30;2.13;;;;;;;-145.69;78.13;72584.56;5052989;28;20206;-78
2021/12/23 08:08:31;;;;;;;3.17;2.13;;;;;;;-145.69;83.96;72622.38;5056064;28;20222;-78
2021/12/23 08:10:57;;;;;;;4.57;2.43;;;;;;;-145.69;84.89;72636.31;5057466;28;20210;-78
2021/12/23 08:13:27;;;;;;;12.63;3.30;;;;;;;-145.69;94.66;72640.28;5056644;28;20238;-78
2021/12/23 08:15:53;;;;;;;4.77;1.77;;;;;;;-145.69;84.74;72640.28;5056874;28;20195;-78
2021/12/23 08:18:21;;;;;;;5.53;2.20;;;;;;;-145.69;86.20;72658.19;5056348;28;20200;-79
2021/12/23 08:20:51;;;;;;;4.90;1.70;;;;;;;-145.69;86.12;72648.25;5056919;28;20535;-78
2021/12/23 08:23:17;;;;;;;4.10;2.00;;;;;;;-145.69;93.72;72652.22;5057025;28;20601;-80
2021/12/23 08:25:44;;;;;;;2.87;1.77;;;;;;;-145.69;86.92;72632.31;5056901;28;20401;-79
2021/12/23 08:28:11;;;;;;;7.57;2.10;;;;;;;-145.69;83.54;72604.44;5056692;28;20219;-78
2021/12/23 08:30:41;;;;;;;4.63;2.13;;;;;;;-145.69;86.00;72614.41;5056677;28;20206;-79
2021/12/23 08:33:12;;;;;;;5.80;1.90;;;;;;;-145.69;85.25;72596.50;5056685;28;20229;-79
2021/12/23 08:35:38;;;;;;;5.10;2.10;;;;;;;-145.69;90.71;72558.66;5056805;28;20226;-78
2021/12/23 08:38:07;;;;;;;3.70;2.10;;;;;;;-145.69;81.20;72506.91;5056831;28;20570;-80
2021/12/23 08:40:34;;;;;;;4.57;2.00;;;;;;;-145.69;75.11;72419.34;5056834;28;20207;-79
2021/12/23 08:43:02;;;;;;;3.20;1.60;;;;;;;-145.69;82.40;72425.31;5056692;28;20601;-79
2021/12/23 08:45:30;;;;;;;5.27;2.50;;;;;;;-145.69;88.48;72449.19;5056403;28;20200;-79
2021/12/23 08:47:57;;;;;;;6.73;2.67;;;;;;;-145.69;85.02;72455.16;5056048;28;20208;-79
2021/12/23 08:50:26;;;;;;;6.03;3.10;;;;;;;-145.69;79.85;72461.13;5056620;28;20239;-79
2021/12/23 08:52:55;;;;;;;3.83;2.27;;;;;;;-145.69;77.77;72465.13;5056388;28;20207;-79
2021/12/23 08:55:25;;;;;;;5.83;2.43;;;;;;;-145.69;91.89;72477.06;5056168;28;20230;-79
2021/12/23 08:57:52;;;;;;;5.23;2.60;;;;;;;-145.69;86.05;72473.09;5056239;28;20200;-79
2021/12/23 09:00:20;;;;;;;3.67;2.00;;;;;;;-145.69;99.54;72467.13;5056036;28;20207;-78
2021/12/23 09:02:48;;;;;;;8.10;2.50;;;;;;;-145.69;99.93;72471.09;5056338;28;20204;-79
2021/12/23 09:05:16;;;;;;;5.93;2.33;;;;;;;-145.69;90.40;72461.13;5056206;28;20253;-79
2021/12/23 09:07:43;;;;;;;6.33;1.97;;;;;;;-145.69;84.96;72473.09;5056364;28;20195;-79
2021/12/23 09:10:10;;;;;;;4.67;2.27;;;;;;;-145.69;99.62;72471.09;5056188;28;20582;-79
2021/12/23 09:12:38;;;;;;;4.43;2.13;;;;;;;-145.69;87.58;72485.03;5055870;28;20238;-79
2021/12/23 09:15:06;;;;;;;4.67;2.10;;;;;;;-145.69;99.10;72481.03;5055824;28;20195;-78
2021/12/23 09:17:33;;;;;;;4.63;2.10;;;;;;;-145.69;100.00;72473.09;5055872;28;20234;-78
2021/12/23 09:19:59;;;;;;;5.57;2.20;;;;;;;-145.69;88.74;72449.19;5055888;28;20199;-78
2021/12/23 09:22:26;;;;;;;3.73;2.00;;;;;;;-145.69;90.82;72453.19;5055866;28;20249;-79
2021/12/23 09:24:57;;;;;;;3.90;2.40;;;;;;;-145.69;99.63;72445.22;5055793;28;20773;-78
2021/12/23 09:27:31;;;;;;;6.43;2.73;;;;;;;-145.69;92.74;72415.38;5055717;28;20199;-78
2021/12/23 09:32:52;;;;;;;7.97;3.90;;;;;;;-145.69;73.37;72331.78;5055778;28;20261;-79
2021/12/23 09:35:21;;;;;;;8.67;3.60;;;;;;;-145.69;92.79;72323.81;5055424;28;20201;-79
2021/12/23 09:37:48;;;;;;;6.80;3.27;;;;;;;-145.69;86.21;72327.78;5055645;28;20207;-78
2021/12/23 09:40:15;;;;;;;10.43;4.30;;;;;;;-145.69;89.36;72329.78;5055590;28;20208;-79
2021/12/23 09:42:44;;;;;;;9.37;4.37;;;;;;;-145.69;76.37;72337.75;5055130;28;20210;-78
2021/12/23 09:45:14;;;;;;;6.33;2.50;;;;;;;-145.69;71.69;72297.94;5055213;28;20211;-78
2021/12/23 09:47:43;;;;;;;10.93;5.93;;;;;;;-145.69;73.93;72282.00;5054971;28;20192;-77
2021/12/23 09:50:12;;;;;;;8.37;3.47;;;;;;;-145.69;67.47;72238.22;5055051;28;20227;-78
2021/12/23 09:52:46;;;;;;;6.97;3.07;;;;;;;-145.69;70.95;72218.31;5055215;28;20601;-78
2021/12/23 09:55:18;;;;;;;4.27;2.73;;;;;;;-145.69;67.67;72216.34;5058496;28;20207;-78
2021/12/23 09:57:47;;;;;;;4.27;2.80;;;;;;;-145.69;65.69;72206.38;5055606;28;20199;-78
2021/12/23 10:00:17;;;;;;;7.60;2.83;;;;;;;-145.69;69.97;72206.38;5055032;28;20207;-78
2021/12/23 10:02:46;;;;;;;4.43;2.63;;;;;;;-145.69;65.98;72192.44;5054850;28;20677;-78
2021/12/23 10:05:18;;;;;;;7.27;3.03;;;;;;;-145.69;68.84;72182.50;5054575;28;20333;-78
2021/12/23 10:07:46;;;;;;;5.13;2.60;;;;;;;-145.69;66.73;72174.53;5055259;28;20214;-78
2021/12/23 10:10:19;;;;;;;6.53;2.70;;;;;;;-145.69;71.25;72190.47;5054610;28;20231;-78
2021/12/23 10:38:11;;;;;;;6.87;3.57;;;;;;;-145.69;75.84;72059.09;5054354;28;20209;-80
2021/12/23 10:40:41;;;;;;;7.07;2.30;;;;;;;-145.69;69.64;72081.00;5054371;28;20208;-79
2021/12/23 10:43:11;;;;;;;6.87;3.40;;;;;;;-145.69;71.89;72051.16;5054224;28;20208;-79
2021/12/23 10:45:45;;;;;;;6.10;3.30;;;;;;;-145.69;70.73;72037.22;5053473;28;20257;-79
2021/12/23 10:48:15;;;;;;;5.87;3.50;;;;;;;-145.69;61.84;72045.16;5053910;28;20207;-79
2021/12/23 10:50:45;;;;;;;7.93;3.07;;;;;;;-145.69;60.79;72057.13;5053670;28;20719;-79
2021/12/23 10:53:26;;;;;;;9.07;3.50;;;;;;;-145.69;64.11;72045.16;5054079;28;20297;-79
2021/12/23 10:59:08;;;;;;;4.37;2.70;;;;;;;-145.69;55.01;71995.41;5053677;28;20231;-79
2021/12/23 11:01:38;;;;;;;5.87;2.37;;;;;;;-145.69;59.53;71987.47;5053858;28;20207;-79
2021/12/23 11:04:08;;;;;;;14.43;6.17;;;;;;;-145.69;59.29;71961.59;5053739;28;20204;-79
2021/12/23 11:06:41;;;;;;;3.67;2.23;;;;;;;-145.69;55.29;71943.69;5053666;28;20206;-79
2021/12/23 11:09:35;;;;;;;5.90;2.35;;;;;;;-145.69;53.70;71941.69;5053245;28;20538;-79
2021/12/23 11:27:23;;;;;;;4.10;1.97;;;;;;;-145.69;54.11;71951.63;5053383;28;20761;-79
2021/12/23 11:37:51;;;;;;;4.70;2.10;;;;;;;-145.69;52.12;71874.03;5053076;28;20245;-79
2021/12/23 11:40:37;;;;;;;4.30;2.20;;;;;;;-145.69;55.94;71854.13;5053308;28;20206;-80
2021/12/23 11:43:27;;;;;;;4.80;2.37;;;;;;;-145.69;51.23;71866.06;5053033;28;20623;-79
2021/12/23 11:45:53;;;;;;;3.77;2.07;;;;;;;-145.69;53.08;71850.13;5033244;28;20231;-78
2021/12/23 11:48:20;;;;;;;10.53;2.97;;;;;;;-145.69;55.26;71832.22;5033164;28;20203;-78
2021/12/23 11:50:55;;;;;;;12.03;3.33;;;;;;;-145.69;50.83;71832.22;5032930;28;20228;-78
2021/12/23 11:53:25;;;;;;;3.93;2.00;;;;;;;-145.69;51.28;71838.19;5033220;28;20294;-78
2021/12/23 11:55:53;;;;;;;6.57;3.03;;;;;;;-145.69;54.04;71840.19;5033165;28;20295;-78
2021/12/23 11:58:27;;;;;;;6.50;2.63;;;;;;;-145.69;54.64;71818.31;5043389;28;20203;-78
2021/12/23 12:01:07;;;;;;;4.43;2.27;;;;;;;-145.69;53.51;71798.41;5052892;28;20294;-79
2021/12/23 12:03:40;;;;;;;5.57;2.27;;;;;;;-145.69;50.21;71796.41;5052747;28;20203;-78
2021/12/23 12:06:15;;;;;;;4.18;2.40;;;;;;;-145.69;51.55;71766.56;5051736;28;20485;-78
2021/12/23 12:08:43;;;;;;;4.23;2.10;;;;;;;-145.69;48.96;71776.50;5052813;28;20202;-79
2021/12/23 12:11:21;;;;;;;3.93;2.03;;;;;;;-145.69;49.08;71774.50;5052624;28;20532;-79
2021/12/23 12:13:48;;;;;;;5.17;2.37;;;;;;;-145.69;50.17;71764.56;5052323;28;20635;-79